Time;durP1;ratioP1;P1;durP2;ratioP2;P2;SDS_P1;SDS_P2;PMS_P1;PMS_P2;Temp;Humidity;BMP_temperature;BMP_pressure;BME280_temperature;BME280_humidity;BME280_pressure;Samples;Min_cycle;Max_cycle;Signal;HPM_P1;HPM_P2
2022/04/03 09:10:15;;;;;;;2.40;2.22;;;;;;;;;;6197691;23;20043;-88
2022/04/03 09:12:48;;;;;;;2.03;1.92;;;;;;;;;;6216057;23;20016;-86
2022/04/03 09:15:16;;;;;;;2.60;2.40;;;;;;;;;;6189840;23;20454;-87
2022/04/03 09:17:49;;;;;;;2.30;2.20;;;;;;;;;;6189933;23;20009;-84
2022/04/03 09:20:19;;;;;;;2.17;1.98;;;;;;;;;;6189786;23;20015;-86
2022/04/03 09:22:50;;;;;;;2.50;2.30;;;;;;;;;;6216350;23;20027;-85
2022/04/03 09:25:22;;;;;;;2.40;2.20;;;;;;;;;;6216624;23;20415;-85
2022/04/03 09:27:50;;;;;;;2.50;2.30;;;;;;;;;;6216383;23;20001;-86
2022/04/03 09:30:16;;;;;;;2.30;2.10;;;;;;;;;;6216305;23;20001;-87
2022/04/03 09:32:52;;;;;;;1.95;1.85;;;;;;;;;;6216458;23;20012;-87
2022/04/03 09:35:20;;;;;;;1.80;1.70;;;;;;;;;;6189523;23;20005;-86
2022/04/03 09:38:27;;;;;;;2.50;2.30;;;;;;;;;;6189636;23;20382;-86
2022/04/03 09:40:53;;;;;;;2.67;2.47;;;;;;;;;;6042691;23;20018;-86
2022/04/03 09:43:32;;;;;;;2.08;1.95;;;;;;;;;;6066702;23;20014;-87
2022/04/03 09:45:59;;;;;;;2.78;2.22;;;;;;;;;;6066863;23;20003;-88
2022/04/03 09:48:39;;;;;;;2.45;2.25;;;;;;;;;;6042018;23;20007;-89
2022/04/03 09:51:11;;;;;;;2.22;2.13;;;;;;;;;;6067101;23;20085;-86
2022/04/03 09:53:43;;;;;;;2.63;2.40;;;;;;;;;;6042202;23;20498;-87
2022/04/03 09:56:11;;;;;;;2.75;2.30;;;;;;;;;;6067433;23;20007;-87
2022/04/03 09:58:51;;;;;;;2.35;2.08;;;;;;;;;;6067423;23;20030;-88
2022/04/03 10:01:35;;;;;;;1.95;1.85;;;;;;;;;;6066854;23;20074;-86
2022/04/03 10:04:05;;;;;;;1.95;1.73;;;;;;;;;;6042276;23;20038;-88
2022/04/03 10:06:32;;;;;;;1.88;1.77;;;;;;;;;;6066804;23;20089;-87
2022/04/03 10:08:58;;;;;;;1.85;1.65;;;;;;;;;;6042193;23;20002;-86
2022/04/03 10:11:24;;;;;;;2.33;2.22;;;;;;;;;;6106010;23;20021;-90
2022/04/03 10:13:51;;;;;;;2.40;2.10;;;;;;;;;;6216032;23;20000;-86
2022/04/03 10:16:17;;;;;;;2.00;1.90;;;;;;;;;;6216197;23;20005;-87
2022/04/03 10:18:44;;;;;;;2.70;2.50;;;;;;;;;;6215872;23;20477;-87
2022/04/03 10:21:29;;;;;;;2.70;2.50;;;;;;;;;;6190455;23;20005;-86
2022/04/03 10:24:01;;;;;;;2.67;2.47;;;;;;;;;;6215972;23;20008;-87
2022/04/03 10:26:28;;;;;;;3.95;2.33;;;;;;;;;;6189460;23;20004;-87
2022/04/03 10:28:57;;;;;;;2.63;2.42;;;;;;;;;;6216030;23;20027;-86
2022/04/03 10:31:22;;;;;;;2.80;2.47;;;;;;;;;;6189432;23;20375;-87
2022/04/03 10:33:50;;;;;;;2.80;2.60;;;;;;;;;;6189794;23;20008;-86
2022/04/03 10:36:26;;;;;;;2.28;2.08;;;;;;;;;;6216188;23;20005;-87
2022/04/03 10:39:23;;;;;;;2.42;2.22;;;;;;;;;;6216237;23;20000;-86
2022/04/03 10:41:49;;;;;;;2.85;2.40;;;;;;;;;;6138856;23;20036;-88
2022/04/03 10:44:22;;;;;;;2.50;2.30;;;;;;;;;;6189544;23;20008;-87
2022/04/03 10:47:03;;;;;;;2.38;2.17;;;;;;;;;;6216138;23;20001;-86
2022/04/03 10:49:38;;;;;;;2.47;2.28;;;;;;;;;;6216147;23;20439;-90
2022/04/03 10:52:21;;;;;;;2.33;2.15;;;;;;;;;;6216461;23;20000;-88
2022/04/03 10:54:52;;;;;;;2.58;2.35;;;;;;;;;;6215962;23;20008;-87
2022/04/03 10:57:42;;;;;;;2.60;2.38;;;;;;;;;;6215842;23;20005;-87
2022/04/03 11:00:14;;;;;;;4.75;4.25;;;;;;;;;;6215669;23;20012;-85
2022/04/03 11:02:57;;;;;;;2.88;2.65;;;;;;;;;;6215836;23;20001;-85
2022/04/03 11:05:28;;;;;;;2.55;2.35;;;;;;;;;;6191326;23;20321;-87
2022/04/03 11:08:14;;;;;;;3.00;2.80;;;;;;;;;;6217632;23;20005;-88
2022/04/03 11:10:57;;;;;;;2.97;2.78;;;;;;;;;;6190968;23;20439;-87
2022/04/03 11:13:26;;;;;;;2.67;2.47;;;;;;;;;;6217635;23;20001;-88
2022/04/03 11:15:55;;;;;;;2.30;2.15;;;;;;;;;;6217949;23;20381;-88
2022/04/03 11:18:45;;;;;;;2.03;1.92;;;;;;;;;;6217641;23;20009;-87
2022/04/03 11:21:31;;;;;;;2.15;2.05;;;;;;;;;;6217598;23;20012;-87
2022/04/03 11:24:10;;;;;;;2.13;2.00;;;;;;;;;;6217823;23;20008;-86
2022/04/03 11:26:36;;;;;;;3.70;1.75;;;;;;;;;;6217631;23;20032;-87
2022/04/03 11:29:04;;;;;;;2.22;2.10;;;;;;;;;;6217669;23;20008;-87
2022/04/03 11:31:30;;;;;;;2.92;2.05;;;;;;;;;;6217761;23;20000;-87
2022/04/03 11:33:57;;;;;;;2.50;2.30;;;;;;;;;;6217424;23;20000;-88
2022/04/03 11:36:27;;;;;;;2.88;2.67;;;;;;;;;;6217478;23;20075;-87
2022/04/03 11:38:53;;;;;;;2.50;2.30;;;;;;;;;;6190740;23;20446;-87
2022/04/03 11:41:27;;;;;;;2.67;2.47;;;;;;;;;;6190805;23;20025;-86
2022/04/03 11:44:01;;;;;;;1.92;1.83;;;;;;;;;;6217765;23;20332;-88
2022/04/03 11:46:46;;;;;;;1.92;1.83;;;;;;;;;;6217395;23;20031;-87
2022/04/03 11:49:16;;;;;;;2.25;2.05;;;;;;;;;;6190933;23;20000;-87
2022/04/03 11:51:42;;;;;;;2.60;2.40;;;;;;;;;;6217474;23;20084;-87
2022/04/03 11:54:09;;;;;;;2.05;1.95;;;;;;;;;;6194629;23;19996;-87
2022/04/03 11:56:36;;;;;;;2.53;2.22;;;;;;;;;;6221172;23;20024;-86
2022/04/03 11:59:04;;;;;;;2.20;2.00;;;;;;;;;;6217054;23;20004;-86
2022/04/03 12:01:50;;;;;;;2.63;2.42;;;;;;;;;;6190467;23;20051;-87
2022/04/03 12:04:16;;;;;;;2.22;2.13;;;;;;;;;;6190466;23;20024;-86
2022/04/03 12:06:49;;;;;;;2.08;1.98;;;;;;;;;;6217413;23;20064;-87
2022/04/03 12:09:18;;;;;;;2.65;2.30;;;;;;;;;;6217242;23;20059;-86
2022/04/03 12:11:48;;;;;;;2.42;2.28;;;;;;;;;;6216888;23;20088;-87
2022/04/03 12:14:30;;;;;;;2.13;1.95;;;;;;;;;;6190305;23;20017;-87
2022/04/03 12:17:00;;;;;;;2.30;2.10;;;;;;;;;;6216921;23;20404;-86
2022/04/03 12:19:27;;;;;;;2.42;2.20;;;;;;;;;;6190431;23;20000;-87
2022/04/03 12:21:56;;;;;;;2.13;2.03;;;;;;;;;;6217075;23;20032;-87
2022/04/03 12:24:25;;;;;;;2.47;2.28;;;;;;;;;;6217530;23;20005;-87
2022/04/03 12:26:54;;;;;;;2.25;2.13;;;;;;;;;;6217255;23;20073;-87
2022/04/03 12:29:21;;;;;;;1.90;1.80;;;;;;;;;;6216974;23;20016;-87
2022/04/03 12:32:01;;;;;;;2.58;2.38;;;;;;;;;;6217279;23;20363;-87
2022/04/03 12:34:29;;;;;;;2.22;2.08;;;;;;;;;;6216790;23;20004;-87
2022/04/03 12:36:57;;;;;;;2.40;2.20;;;;;;;;;;6216910;23;20004;-86
2022/04/03 12:39:34;;;;;;;2.63;2.17;;;;;;;;;;6190243;23;20059;-86
2022/04/03 12:42:23;;;;;;;2.72;2.50;;;;;;;;;;6217043;23;20027;-86
2022/04/03 12:45:19;;;;;;;2.42;2.22;;;;;;;;;;6216828;23;20001;-87
2022/04/03 12:48:00;;;;;;;2.65;2.45;;;;;;;;;;6189993;23;20016;-87
2022/04/03 12:50:31;;;;;;;3.25;2.30;;;;;;;;;;6190130;23;20035;-86
2022/04/03 12:53:04;;;;;;;2.45;2.25;;;;;;;;;;6190314;23;20083;-86
2022/04/03 12:55:32;;;;;;;2.67;2.47;;;;;;;;;;6216904;23;20004;-86
2022/04/03 13:01:21;;;;;;;2.72;2.53;;;;;;;;;;6216881;23;20011;-87
2022/04/03 13:03:49;;;;;;;2.65;2.45;;;;;;;;;;6066868;23;20007;-87
2022/04/03 13:06:22;;;;;;;2.78;2.58;;;;;;;;;;6161476;23;20008;-86
2022/04/03 13:09:07;;;;;;;3.08;2.78;;;;;;;;;;6190019;23;20015;-87
2022/04/03 13:11:39;;;;;;;2.47;2.38;;;;;;;;;;6216562;23;20013;-88
2022/04/03 13:14:23;;;;;;;2.80;2.35;;;;;;;;;;6216430;23;20012;-87
2022/04/03 13:16:52;;;;;;;2.72;2.53;;;;;;;;;;6216628;23;20005;-87
2022/04/03 13:19:19;;;;;;;2.85;2.65;;;;;;;;;;6190130;23;20332;-88
2022/04/03 13:21:45;;;;;;;2.92;2.72;;;;;;;;;;6190098;23;20382;-88
2022/04/03 13:24:12;;;;;;;3.10;2.90;;;;;;;;;;6216541;23;20001;-87
2022/04/03 13:26:38;;;;;;;2.75;2.55;;;;;;;;;;6190485;23;20015;-89
2022/04/03 13:29:07;;;;;;;2.80;2.60;;;;;;;;;;6217417;23;20428;-88
2022/04/03 13:31:34;;;;;;;3.13;2.92;;;;;;;;;;6216745;23;20007;-85
2022/04/03 13:33:59;;;;;;;2.80;2.60;;;;;;;;;;6189631;23;20408;-87
2022/04/03 13:36:25;;;;;;;2.95;2.65;;;;;;;;;;6189982;23;20041;-88
2022/04/03 13:38:51;;;;;;;2.70;2.50;;;;;;;;;;6216338;23;20079;-87
2022/04/03 13:41:17;;;;;;;3.17;2.88;;;;;;;;;;6189759;23;20032;-89
2022/04/03 13:43:42;;;;;;;3.00;2.70;;;;;;;;;;6216532;23;20011;-88
2022/04/03 13:46:08;;;;;;;6.10;3.03;;;;;;;;;;6216806;23;20076;-88
2022/04/03 13:48:38;;;;;;;2.78;2.58;;;;;;;;;;6216542;23;20004;-87
2022/04/03 13:51:05;;;;;;;2.85;2.65;;;;;;;;;;6216159;23;20032;-87
2022/04/03 13:53:31;;;;;;;3.85;3.50;;;;;;;;;;6216563;23;20007;-86
2022/04/03 13:55:57;;;;;;;3.30;3.00;;;;;;;;;;6216432;23;20032;-87
2022/04/03 13:58:26;;;;;;;2.53;2.33;;;;;;;;;;6216661;23;20131;-87
2022/04/03 14:00:56;;;;;;;3.00;2.80;;;;;;;;;;6190219;23;20094;-92
2022/04/03 14:03:22;;;;;;;3.38;2.55;;;;;;;;;;6189882;23;20062;-86
2022/04/03 14:05:50;;;;;;;2.90;2.70;;;;;;;;;;6216469;23;20005;-86
2022/04/03 14:08:18;;;;;;;4.88;2.90;;;;;;;;;;6216089;23;20400;-86
2022/04/03 14:10:46;;;;;;;3.63;2.97;;;;;;;;;;6212778;23;20009;-87
2022/04/03 14:13:13;;;;;;;2.60;2.40;;;;;;;;;;6216699;23;20015;-89
2022/04/03 14:15:39;;;;;;;2.63;2.42;;;;;;;;;;6190673;23;20019;-91
2022/04/03 14:18:05;;;;;;;2.95;2.60;;;;;;;;;;6190870;23;20004;-91
2022/04/03 14:20:30;;;;;;;3.33;3.00;;;;;;;;;;6191099;23;20000;-91
2022/04/03 14:22:56;;;;;;;10.07;6.10;;;;;;;;;;6190702;23;20083;-91
2022/04/03 14:25:21;;;;;;;5.70;4.43;;;;;;;;;;6190024;23;20344;-88
2022/04/03 14:27:48;;;;;;;19.80;9.93;;;;;;;;;;6189936;23;20382;-89
2022/04/03 14:30:13;;;;;;;6.68;4.38;;;;;;;;;;6189690;23;20004;-90
2022/04/03 14:32:45;;;;;;;6.72;4.93;;;;;;;;;;6190233;23;20320;-91
2022/04/03 14:35:14;;;;;;;5.75;4.90;;;;;;;;;;6189900;23;20014;-87
2022/04/03 14:37:42;;;;;;;4.75;4.25;;;;;;;;;;6189561;23;20062;-87
2022/04/03 14:40:08;;;;;;;5.10;4.60;;;;;;;;;;6191521;23;20301;-88
2022/04/03 14:42:34;;;;;;;5.97;4.97;;;;;;;;;;6218826;23;20073;-89
2022/04/03 14:44:59;;;;;;;4.45;3.97;;;;;;;;;;6192050;23;20036;-91
2022/04/03 14:47:25;;;;;;;4.95;4.50;;;;;;;;;;6192463;23;20031;-90
2022/04/03 14:49:50;;;;;;;4.93;4.40;;;;;;;;;;6192292;23;20009;-89
2022/04/03 14:52:16;;;;;;;4.95;4.18;;;;;;;;;;6192651;23;20412;-93
2022/04/03 14:54:42;;;;;;;5.80;4.20;;;;;;;;;;6191955;23;20062;-89
2022/04/03 14:57:09;;;;;;;5.75;4.53;;;;;;;;;;6193932;23;20001;-91
2022/04/03 14:59:35;;;;;;;5.60;4.30;;;;;;;;;;6191826;23;20004;-90
2022/04/03 15:02:01;;;;;;;5.35;4.63;;;;;;;;;;6192203;23;20031;-92
2022/04/03 15:04:27;;;;;;;5.38;4.25;;;;;;;;;;6192393;23;20458;-91
2022/04/03 15:06:53;;;;;;;8.07;5.95;;;;;;;;;;6191268;23;20067;-90
2022/04/03 15:09:31;;;;;;;5.57;5.00;;;;;;;;;;6218224;23;20000;-87
2022/04/03 15:11:59;;;;;;;5.10;4.60;;;;;;;;;;6217558;23;20092;-87
2022/04/03 15:14:24;;;;;;;5.68;4.68;;;;;;;;;;6191109;23;20016;-88
2022/04/03 15:16:50;;;;;;;4.93;4.47;;;;;;;;;;6191022;23;20032;-87
2022/04/03 15:19:16;;;;;;;6.95;4.82;;;;;;;;;;6191660;23;20081;-87
2022/04/03 15:21:42;;;;;;;6.05;5.05;;;;;;;;;;6190968;23;20008;-86
2022/04/03 15:24:07;;;;;;;6.70;5.88;;;;;;;;;;6217947;23;20004;-87
2022/04/03 15:26:34;;;;;;;6.68;5.97;;;;;;;;;;6191021;23;20432;-86
2022/04/03 15:28:59;;;;;;;6.10;4.90;;;;;;;;;;6190940;23;20031;-86
2022/04/03 15:31:25;;;;;;;6.93;5.57;;;;;;;;;;6190909;23;20008;-86
2022/04/03 15:33:51;;;;;;;6.63;5.90;;;;;;;;;;6190794;23;20032;-87
2022/04/03 15:36:17;;;;;;;6.15;5.53;;;;;;;;;;6217459;23;20001;-86
2022/04/03 15:38:43;;;;;;;6.25;5.65;;;;;;;;;;6190812;23;20009;-87
2022/04/03 15:41:08;;;;;;;8.23;5.78;;;;;;;;;;6217958;23;20482;-86
2022/04/03 15:43:34;;;;;;;7.20;5.63;;;;;;;;;;6191102;23;20017;-86
2022/04/03 15:46:00;;;;;;;7.85;6.05;;;;;;;;;;6217672;23;20079;-87
2022/04/03 15:48:25;;;;;;;6.90;5.70;;;;;;;;;;6217335;23;20000;-87
2022/04/03 15:50:50;;;;;;;7.78;5.88;;;;;;;;;;6217067;23;20001;-87
2022/04/03 15:53:16;;;;;;;9.07;6.38;;;;;;;;;;6190935;23;20332;-86
2022/04/03 15:55:42;;;;;;;5.07;4.63;;;;;;;;;;6217536;23;20058;-87
2022/04/03 15:58:07;;;;;;;5.57;4.97;;;;;;;;;;6217681;23;20332;-87
2022/04/03 16:00:33;;;;;;;6.68;5.13;;;;;;;;;;6191061;23;20027;-89
2022/04/03 16:02:58;;;;;;;5.75;5.15;;;;;;;;;;6217701;23;20321;-89
2022/04/03 16:05:23;;;;;;;5.32;4.82;;;;;;;;;;6191589;23;20058;-90
2022/04/03 16:07:49;;;;;;;5.93;5.32;;;;;;;;;;6190721;23;20424;-87
2022/04/03 16:10:27;;;;;;;4.75;4.25;;;;;;;;;;6190765;23;20015;-89
2022/04/03 16:12:54;;;;;;;7.50;5.35;;;;;;;;;;6217545;23;20020;-87
2022/04/03 16:15:20;;;;;;;5.50;4.90;;;;;;;;;;6191064;23;20024;-86
2022/04/03 16:17:46;;;;;;;5.47;4.88;;;;;;;;;;6217554;23;20008;-87
2022/04/03 16:20:13;;;;;;;4.75;4.20;;;;;;;;;;6217873;23;20005;-92
2022/04/03 16:22:41;;;;;;;4.95;4.45;;;;;;;;;;6201345;23;20016;-89
2022/04/03 16:25:08;;;;;;;5.35;4.70;;;;;;;;;;6202191;23;20043;-89
2022/04/03 16:27:34;;;;;;;5.80;4.82;;;;;;;;;;6200053;23;20008;-89
2022/04/03 16:29:59;;;;;;;5.38;4.82;;;;;;;;;;6208558;23;20027;-92
2022/04/03 16:32:25;;;;;;;5.15;4.68;;;;;;;;;;6237101;23;20005;-89
2022/04/03 18:03:12;;;;;;;6.13;4.25;;;;;;;;;;6164534;23;20013;-93
2022/04/03 18:05:38;;;;;;;6.68;5.05;;;;;;;;;;6217818;23;20028;-92
2022/04/03 18:08:12;;;;;;;5.82;4.85;;;;;;;;;;6192010;23;20336;-91
2022/04/03 18:10:40;;;;;;;4.68;4.18;;;;;;;;;;6221959;23;20305;-94
2022/04/03 18:13:09;;;;;;;5.30;4.80;;;;;;;;;;6193406;23;20420;-91
2022/04/03 18:15:34;;;;;;;4.60;4.20;;;;;;;;;;6192189;23;20013;-96
2022/04/03 18:18:00;;;;;;;4.95;4.50;;;;;;;;;;6193826;23;20327;-94
2022/04/03 18:20:25;;;;;;;6.43;5.53;;;;;;;;;;6195359;23;20032;-93
2022/04/03 18:22:51;;;;;;;6.22;4.75;;;;;;;;;;6191367;23;20036;-91
2022/04/03 18:25:17;;;;;;;7.60;5.07;;;;;;;;;;6191468;23;20446;-94
2022/04/03 18:27:42;;;;;;;5.28;4.72;;;;;;;;;;6190952;23;20446;-91
2022/04/03 18:30:09;;;;;;;5.82;4.53;;;;;;;;;;6190768;23;20024;-90
2022/04/03 18:32:34;;;;;;;6.22;4.60;;;;;;;;;;6191962;23;20005;-91
2022/04/03 18:35:01;;;;;;;5.70;4.88;;;;;;;;;;6190804;23;20051;-91
2022/04/03 18:37:28;;;;;;;5.85;4.03;;;;;;;;;;6190671;23;20035;-93
2022/04/03 18:39:54;;;;;;;12.05;9.07;;;;;;;;;;6190690;23;20051;-94
2022/04/03 18:42:19;;;;;;;10.73;7.55;;;;;;;;;;6192606;23;20058;-92
2022/04/03 18:44:45;;;;;;;6.78;5.18;;;;;;;;;;6193077;23;20032;-94
2022/04/03 18:47:12;;;;;;;6.20;4.90;;;;;;;;;;6193078;23;20059;-91
2022/04/03 18:49:38;;;;;;;4.97;4.47;;;;;;;;;;6192460;23;20015;-91
2022/04/03 18:52:05;;;;;;;6.55;4.88;;;;;;;;;;6170273;23;20024;-93
2022/04/03 18:54:32;;;;;;;4.85;4.40;;;;;;;;;;6191176;23;20005;-89
2022/04/03 18:56:57;;;;;;;6.90;4.70;;;;;;;;;;6217391;23;19997;-90
2022/04/03 18:59:25;;;;;;;4.97;4.18;;;;;;;;;;6217281;23;20076;-93
2022/04/03 19:01:54;;;;;;;5.50;4.70;;;;;;;;;;6188879;23;20087;-92
2022/04/03 19:04:20;;;;;;;5.95;4.13;;;;;;;;;;6189771;23;20009;-92
2022/04/03 19:06:47;;;;;;;4.13;3.75;;;;;;;;;;6187564;23;20059;-91
2022/04/03 19:09:14;;;;;;;5.22;4.65;;;;;;;;;;6196054;23;20001;-92
2022/04/03 19:11:39;;;;;;;6.10;5.05;;;;;;;;;;6192239;23;20009;-91
2022/04/03 19:14:06;;;;;;;7.30;5.35;;;;;;;;;;6188819;23;20345;-90
2022/04/03 19:16:33;;;;;;;4.90;4.30;;;;;;;;;;6191723;23;20051;-89
2022/04/03 19:18:58;;;;;;;5.60;4.32;;;;;;;;;;6192606;23;20005;-89
2022/04/03 19:21:24;;;;;;;5.13;4.63;;;;;;;;;;6194016;23;20008;-91
2022/04/03 19:23:51;;;;;;;5.60;4.25;;;;;;;;;;6194957;23;20082;-91
2022/04/03 19:26:23;;;;;;;7.25;5.10;;;;;;;;;;6197243;23;20009;-90
2022/04/03 19:28:49;;;;;;;5.32;4.60;;;;;;;;;;6196053;23;20005;-88
2022/04/03 19:31:15;;;;;;;5.88;5.15;;;;;;;;;;6210251;23;20001;-89
2022/04/03 19:33:41;;;;;;;5.82;4.85;;;;;;;;;;6213114;23;20008;-90
2022/04/03 19:36:07;;;;;;;6.85;4.90;;;;;;;;;;6212357;23;20016;-88
2022/04/03 19:38:34;;;;;;;7.30;5.13;;;;;;;;;;6211110;23;20368;-87
2022/04/03 19:40:59;;;;;;;5.82;5.00;;;;;;;;;;6212621;23;20009;-91
2022/04/03 19:43:25;;;;;;;5.85;5.10;;;;;;;;;;6213361;23;20020;-91
2022/04/03 19:45:51;;;;;;;5.40;4.65;;;;;;;;;;6213541;23;20021;-89
2022/04/03 19:48:16;;;;;;;5.55;4.72;;;;;;;;;;6213106;23;19997;-91
2022/04/03 19:50:42;;;;;;;5.90;5.07;;;;;;;;;;6186494;23;20100;-91
2022/04/03 19:53:09;;;;;;;7.47;5.00;;;;;;;;;;6195364;23;20008;-91
2022/04/03 19:55:36;;;;;;;6.38;5.30;;;;;;;;;;6190490;23;20009;-92
2022/04/03 19:58:04;;;;;;;6.43;5.40;;;;;;;;;;6190554;23;20072;-91
2022/04/03 20:00:32;;;;;;;7.28;5.53;;;;;;;;;;6190502;23;20008;-92
2022/04/03 20:02:58;;;;;;;5.40;4.82;;;;;;;;;;6189018;23;20543;-91
2022/04/03 20:05:24;;;;;;;6.68;5.55;;;;;;;;;;6189754;23;20088;-92
2022/04/03 20:07:49;;;;;;;8.20;5.47;;;;;;;;;;6188911;23;20012;-91
2022/04/03 20:10:16;;;;;;;6.32;4.43;;;;;;;;;;6189420;23;20009;-92
2022/04/03 20:12:41;;;;;;;5.18;4.45;;;;;;;;;;6188814;23;20001;-92
2022/04/03 20:15:08;;;;;;;5.68;4.50;;;;;;;;;;6187711;23;20009;-91
2022/04/03 20:17:34;;;;;;;6.30;4.80;;;;;;;;;;6187315;23;20006;-91
2022/04/03 20:20:04;;;;;;;7.55;4.97;;;;;;;;;;6187553;23;20405;-92
2022/04/03 20:22:30;;;;;;;6.72;5.38;;;;;;;;;;6187054;23;20009;-92
2022/04/03 20:24:56;;;;;;;6.50;5.57;;;;;;;;;;6187397;23;20005;-92
2022/04/03 20:27:21;;;;;;;7.47;6.18;;;;;;;;;;6186684;23;20488;-91
2022/04/03 20:29:47;;;;;;;8.70;5.93;;;;;;;;;;6186491;23;20424;-93
2022/04/03 20:32:13;;;;;;;7.85;5.57;;;;;;;;;;6186755;23;20412;-90
2022/04/03 20:34:38;;;;;;;5.78;5.03;;;;;;;;;;6186182;23;20416;-91
2022/04/03 20:37:04;;;;;;;8.15;5.00;;;;;;;;;;6186232;23;20487;-93
2022/04/03 20:39:29;;;;;;;7.75;6.07;;;;;;;;;;6186354;23;20016;-91
2022/04/03 20:41:55;;;;;;;8.07;5.22;;;;;;;;;;6187946;23;20340;-96
2022/04/03 20:44:21;;;;;;;7.65;5.70;;;;;;;;;;6190904;23;20013;-96
2022/04/03 20:46:48;;;;;;;7.82;5.85;;;;;;;;;;6192497;23;20017;-92
2022/04/03 20:49:15;;;;;;;6.18;5.57;;;;;;;;;;6189460;23;20009;-95
2022/04/03 20:51:41;;;;;;;6.85;5.43;;;;;;;;;;6189205;23;20032;-94
2022/04/03 20:54:06;;;;;;;7.22;5.85;;;;;;;;;;6188744;23;20348;-93
2022/04/03 20:56:32;;;;;;;6.82;5.75;;;;;;;;;;6189173;23;20019;-92
2022/04/03 20:58:57;;;;;;;7.50;5.93;;;;;;;;;;6187372;23;20466;-92
2022/04/03 21:01:23;;;;;;;5.68;4.93;;;;;;;;;;6188345;23;20424;-92
2022/04/03 21:03:48;;;;;;;6.88;5.32;;;;;;;;;;6191143;23;20009;-90
2022/04/03 21:06:14;;;;;;;6.47;5.68;;;;;;;;;;6191146;23;20000;-93
2022/04/03 21:08:39;;;;;;;5.38;4.88;;;;;;;;;;6191071;23;20389;-91
2022/04/03 21:11:06;;;;;;;6.18;4.32;;;;;;;;;;6217422;23;20063;-91
2022/04/03 21:13:31;;;;;;;5.80;4.90;;;;;;;;;;6190995;23;20004;-91
2022/04/03 21:15:57;;;;;;;5.80;5.20;;;;;;;;;;6190894;23;20004;-90
2022/04/03 21:18:22;;;;;;;6.78;5.43;;;;;;;;;;6191667;23;20016;-90
